Mathilde Maersk — OUJS2 — position and weather

sailwx.info

Track history (hours):
 
Tides and Currents Weather Stations Pressure Air Temp Water Temp Dewpoint Dewpoint Depression Visibility Wind Speed Wind Dir Waves Ship Positions

Mathilde Maersk

Last reported at 2016-Dec-01 04:33 UTC. Time now 2016-Dec-07 12:37 UTC.
Position N 02°01' E 102°10'.

Length 367 m; draft 12.2 m.

Type: Ship (hazmat cat B). MMSI: 220597990.

Date/timePositionNaut miles runAvg speedWind from/ knotsBaromVisibWave heightAir tempDewpointWater temp
2016-Dec-01 04:33N 02°01' E 102°10'1717.4
2016-Dec-01 03:33N 01°52' E 102°25'1716.7
2016-Dec-01 02:33N 01°45' E 102°40'6616.5
2016-Nov-30 22:33N 01°12' E 103°37'11 9.6
2016-Nov-30 21:22N 01°13' E 103°48'5 5.5
2016-Nov-30 20:31N 01°16' E 103°46'0 0.0
2016-Nov-30 18:28N 01°16' E 103°46'0 0.0
2016-Nov-30 02:33N 01°16' E 103°46'6 6.2
2016-Nov-30 01:32N 01°12' E 103°51'8 8.0
2016-Nov-30 00:31N 01°15' E 103°58'  
2016-Nov-26 21:22N 22°19' E 114°05'1111.0
2016-Nov-26 20:21N 22°23' E 113°54'5 6.5
2016-Nov-26 19:33N 22°28' E 113°53'0 0.1
2016-Nov-26 18:29N 22°28' E 113°53'0 0.0
2016-Nov-26 17:29N 22°27' E 113°53'0 0.0
2016-Nov-26 16:23N 22°27' E 113°53'0 0.0
2016-Nov-26 15:29N 22°27' E 113°53'0 0.0
2016-Nov-26 14:11N 22°27' E 113°53'0 0.0
2016-Nov-26 13:29N 22°27' E 113°53'0 0.0
2016-Nov-26 12:23N 22°28' E 113°53'0 0.0
2016-Nov-26 11:29N 22°28' E 113°53'0 0.0
2016-Nov-26 10:29N 22°27' E 113°53'0 0.0
2016-Nov-26 09:17N 22°27' E 113°53'267 8.2
2016-Nov-25 00:30N 23°54' E 118°28'5413.3
2016-Nov-24 20:29N 24°29' E 119°13'33813.0
2016-Nov-23 18:32N 29°18' E 122°31'1514.6
2016-Nov-23 17:32N 29°32' E 122°30'1211.5
2016-Nov-23 16:30N 29°43' E 122°24'1212.6
2016-Nov-23 15:33N 29°50' E 122°13'9 9.2
2016-Nov-23 14:32N 29°53' E 122°03'0 0.1
2016-Nov-23 13:26N 29°53' E 122°03'0 0.0
2016-Nov-23 12:23N 29°53' E 122°03'0 0.0
2016-Nov-23 11:32N 29°53' E 122°03'0 0.0
2016-Nov-23 10:29N 29°53' E 122°03'0 0.0
2016-Nov-23 09:08N 29°53' E 122°03'0 0.0
2016-Nov-23 08:32N 29°53' E 122°03'0 0.0
2016-Nov-23 07:32N 29°53' E 122°03'0 0.0
2016-Nov-23 06:17N 29°53' E 122°03'0 0.0
2016-Nov-23 03:32N 29°53' E 122°03'0 0.0
2016-Nov-23 02:32N 29°53' E 122°03'0 0.0
2016-Nov-23 00:32N 29°53' E 122°03'0 0.0
2016-Nov-22 23:27N 29°53' E 122°03'0 0.0
2016-Nov-22 22:32N 29°53' E 122°03'0 0.0
2016-Nov-22 20:26N 29°53' E 122°03'0 0.0
2016-Nov-22 19:29N 29°53' E 122°03'0 0.1
2016-Nov-22 17:34N 29°54' E 122°03'6 5.9
2016-Nov-22 16:33N 29°56' E 122°09'1312.6
2016-Nov-22 15:34N 29°46' E 122°18'1413.5
2016-Nov-22 14:33N 29°47' E 122°34'  
Track history (hours):
 
Tides and Currents Weather Stations Pressure Air Temp Water Temp Dewpoint Dewpoint Depression Visibility Wind Speed Wind Dir Waves Ship Positions

Mathilde Maersk

Last reported at 2016-Dec-01 04:33 UTC. Time now 2016-Dec-07 12:37 UTC.
Position N 02°01' E 102°10'.

Length 367 m; draft 12.2 m.

Type: Ship (hazmat cat B). MMSI: 220597990.

Date/timePositionNaut miles runAvg speedWind from/ knotsBaromVisibWave heightAir tempDewpointWater temp
2016-Dec-01 04:33N 02°01' E 102°10'1717.4
2016-Dec-01 03:33N 01°52' E 102°25'1716.7
2016-Dec-01 02:33N 01°45' E 102°40'6616.5
2016-Nov-30 22:33N 01°12' E 103°37'11 9.6
2016-Nov-30 21:22N 01°13' E 103°48'5 5.5
2016-Nov-30 20:31N 01°16' E 103°46'0 0.0
2016-Nov-30 18:28N 01°16' E 103°46'0 0.0
2016-Nov-30 02:33N 01°16' E 103°46'6 6.2
2016-Nov-30 01:32N 01°12' E 103°51'8 8.0
2016-Nov-30 00:31N 01°15' E 103°58'  
2016-Nov-26 21:22N 22°19' E 114°05'1111.0
2016-Nov-26 20:21N 22°23' E 113°54'5 6.5
2016-Nov-26 19:33N 22°28' E 113°53'0 0.1
2016-Nov-26 18:29N 22°28' E 113°53'0 0.0
2016-Nov-26 17:29N 22°27' E 113°53'0 0.0
2016-Nov-26 16:23N 22°27' E 113°53'0 0.0
2016-Nov-26 15:29N 22°27' E 113°53'0 0.0
2016-Nov-26 14:11N 22°27' E 113°53'0 0.0
2016-Nov-26 13:29N 22°27' E 113°53'0 0.0
2016-Nov-26 12:23N 22°28' E 113°53'0 0.0
2016-Nov-26 11:29N 22°28' E 113°53'0 0.0
2016-Nov-26 10:29N 22°27' E 113°53'0 0.0
2016-Nov-26 09:17N 22°27' E 113°53'267 8.2
2016-Nov-25 00:30N 23°54' E 118°28'5413.3
2016-Nov-24 20:29N 24°29' E 119°13'33813.0
2016-Nov-23 18:32N 29°18' E 122°31'1514.6
2016-Nov-23 17:32N 29°32' E 122°30'1211.5
2016-Nov-23 16:30N 29°43' E 122°24'1212.6
2016-Nov-23 15:33N 29°50' E 122°13'9 9.2
2016-Nov-23 14:32N 29°53' E 122°03'0 0.1
2016-Nov-23 13:26N 29°53' E 122°03'0 0.0
2016-Nov-23 12:23N 29°53' E 122°03'0 0.0
2016-Nov-23 11:32N 29°53' E 122°03'0 0.0
2016-Nov-23 10:29N 29°53' E 122°03'0 0.0
2016-Nov-23 09:08N 29°53' E 122°03'0 0.0
2016-Nov-23 08:32N 29°53' E 122°03'0 0.0
2016-Nov-23 07:32N 29°53' E 122°03'0 0.0
2016-Nov-23 06:17N 29°53' E 122°03'0 0.0
2016-Nov-23 03:32N 29°53' E 122°03'0 0.0
2016-Nov-23 02:32N 29°53' E 122°03'0 0.0
2016-Nov-23 00:32N 29°53' E 122°03'0 0.0
2016-Nov-22 23:27N 29°53' E 122°03'0 0.0
2016-Nov-22 22:32N 29°53' E 122°03'0 0.0
2016-Nov-22 20:26N 29°53' E 122°03'0 0.0
2016-Nov-22 19:29N 29°53' E 122°03'0 0.1
2016-Nov-22 17:34N 29°54' E 122°03'6 5.9
2016-Nov-22 16:33N 29°56' E 122°09'1312.6
2016-Nov-22 15:34N 29°46' E 122°18'1413.5
2016-Nov-22 14:33N 29°47' E 122°34'  

Dump ship's entire track history